Time;durP1;ratioP1;P1;durP2;ratioP2;P2;SDS_P1;SDS_P2;PMS_P1;PMS_P2;Temp;Humidity;BMP_temperature;BMP_pressure;BME280_temperature;BME280_humidity;BME280_pressure;Samples;Min_cycle;Max_cycle;Signal;HPM_P1;HPM_P2
2022/04/25 12:18:26;;;;;;;;;;;15.30;91.00;;;;;;5032412;28;20351;-83
2022/04/25 12:21:02;;;;;;;;;;;15.30;90.50;;;;;;5061665;22;21412;-82
2022/04/25 12:23:29;;;;;;;;;;;15.50;91.10;;;;;;5068423;28;19913;-81
2022/04/25 12:25:55;;;;;;;;;;;15.50;88.50;;;;;;5071871;28;19916;-82
2022/04/25 12:28:22;;;;;;;;;;;15.50;89.00;;;;;;5054701;28;20393;-82
2022/04/25 12:30:57;;;;;;;;;;;15.60;86.20;;;;;;5055169;28;20286;-82
2022/04/25 12:33:43;;;;;;;;;;;15.60;83.30;;;;;;5054418;28;19912;-81
2022/04/25 12:36:16;;;;;;;;;;;15.70;83.00;;;;;;5053965;28;19923;-82
2022/04/25 12:38:44;;;;;;;;;;;15.70;85.20;;;;;;5054481;28;19913;-81
2022/04/25 12:41:17;;;;;;;;;;;15.70;88.60;;;;;;5054167;28;20393;-81
2022/04/25 12:43:44;;;;;;;;;;;15.80;89.50;;;;;;5054325;28;19909;-82
2022/04/25 12:46:10;;;;;;;;;;;15.80;84.30;;;;;;5054306;28;20386;-82
2022/04/25 12:48:55;;;;;;;;;;;15.90;82.00;;;;;;5053951;28;19919;-82
2022/04/25 12:51:24;;;;;;;;;;;15.70;78.50;;;;;;5053617;28;20437;-81
2022/04/25 12:53:50;;;;;;;;;;;15.30;80.20;;;;;;5070627;28;19962;-81
2022/04/25 12:56:21;;;;;;;;;;;15.20;84.50;;;;;;5037067;28;19921;-81
2022/04/25 12:58:47;;;;;;;;;;;15.30;88.10;;;;;;5054114;28;19965;-82
2022/04/25 13:01:24;;;;;;;;;;;15.50;87.40;;;;;;5054231;28;19909;-81
2022/04/25 13:04:06;;;;;;;;;;;15.60;81.90;;;;;;5054286;28;20338;-81
2022/04/25 13:06:32;;;;;;;;;;;15.80;81.90;;;;;;5054054;28;19908;-81
2022/04/25 13:08:58;;;;;;;;;;;15.90;78.40;;;;;;5053994;28;19908;-81
2022/04/25 13:11:23;;;;;;;;;;;16.00;70.80;;;;;;5070649;28;19965;-81
2022/04/25 13:13:50;;;;;;;;;;;16.00;72.20;;;;;;5070766;28;19912;-81
2022/04/25 13:16:16;;;;;;;;;;;16.20;72.60;;;;;;5070228;28;19912;-81
2022/04/25 13:18:42;;;;;;;;;;;16.30;70.20;;;;;;5053703;28;19973;-81
2022/04/25 13:21:08;;;;;;;;;;;16.30;69.00;;;;;;5054563;28;19917;-81
2022/04/25 13:23:33;;;;;;;;;;;16.30;68.00;;;;;;5087838;28;19916;-82
2022/04/25 13:25:59;;;;;;;;;;;16.20;66.50;;;;;;5070306;28;19959;-81
2022/04/25 13:28:24;;;;;;;;;;;16.10;67.50;;;;;;5087125;28;20302;-81
2022/04/25 13:30:53;;;;;;;;;;;15.90;66.50;;;;;;5053964;28;20454;-82
2022/04/25 13:33:18;;;;;;;;;;;15.70;69.70;;;;;;5070399;28;20302;-81
2022/04/25 13:35:44;;;;;;;;;;;15.50;69.90;;;;;;5070285;28;19923;-81
2022/04/25 13:38:10;;;;;;;;;;;15.30;69.00;;;;;;5070027;28;19956;-81
2022/04/25 13:40:36;;;;;;;;;;;15.10;70.00;;;;;;5070279;28;19955;-81
2022/04/25 13:43:02;;;;;;;;;;;14.90;71.40;;;;;;5053064;28;19909;-81
2022/04/25 13:45:27;;;;;;;;;;;14.60;73.80;;;;;;5070073;28;19920;-81
2022/04/25 13:47:54;;;;;;;;;;;14.40;76.60;;;;;;5054496;28;19915;-81
2022/04/25 13:50:19;;;;;;;;;;;14.20;84.50;;;;;;5069627;28;19928;-81
2022/04/25 13:52:45;;;;;;;;;;;13.90;89.60;;;;;;5069835;28;19924;-81
2022/04/25 13:55:11;;;;;;;;;;;13.60;92.00;;;;;;5069927;28;20390;-81
2022/04/25 13:57:37;;;;;;;;;;;13.40;93.80;;;;;;5053097;28;19934;-81
2022/04/25 14:00:03;;;;;;;;;;;13.30;94.00;;;;;;5069791;28;19919;-81
2022/04/25 14:05:13;;;;;;;;;;;12.90;99.10;;;;;;5084980;28;20389;-80
2022/04/25 14:07:38;;;;;;;;;;;12.70;99.90;;;;;;5069973;28;19917;-82
2022/04/25 14:10:04;;;;;;;;;;;12.50;99.90;;;;;;5069806;28;19924;-81
2022/04/25 14:12:30;;;;;;;;;;;12.40;99.90;;;;;;5070037;28;19913;-81
2022/04/25 14:14:55;;;;;;;;;;;12.20;99.90;;;;;;5070096;28;20449;-81
2022/04/25 14:17:21;;;;;;;;;;;11.90;99.90;;;;;;5069964;28;19917;-82
2022/04/25 14:19:47;;;;;;;;;;;11.70;99.90;;;;;;5053148;28;19916;-83
2022/04/25 14:22:12;;;;;;;;;;;11.80;99.90;;;;;;5053258;28;19912;-83
2022/04/25 14:24:38;;;;;;;;;;;12.00;99.90;;;;;;5053367;28;20007;-82
2022/04/25 14:27:04;;;;;;;;;;;12.20;99.90;;;;;;5070007;28;20294;-82
2022/04/25 14:29:29;;;;;;;;;;;12.20;99.90;;;;;;5087331;28;19913;-82
2022/04/25 14:31:55;;;;;;;;;;;12.20;99.90;;;;;;5052760;28;19909;-82
2022/04/25 14:34:21;;;;;;;;;;;12.10;99.90;;;;;;5052701;28;20393;-82
2022/04/25 14:36:46;;;;;;;;;;;12.10;99.90;;;;;;5069402;28;19944;-83
2022/04/25 14:39:12;;;;;;;;;;;12.10;99.90;;;;;;5069366;28;19939;-81
2022/04/25 14:41:37;;;;;;;;;;;12.10;99.90;;;;;;5069351;28;19917;-83
2022/04/25 14:44:03;;;;;;;;;;;12.10;99.90;;;;;;5069349;28;20286;-82
2022/04/25 14:46:29;;;;;;;;;;;12.00;99.90;;;;;;5069367;28;19913;-83
2022/04/25 14:48:55;;;;;;;;;;;12.00;99.90;;;;;;5069346;28;20053;-83
2022/04/25 14:56:45;;;;;;;;;;;12.00;99.90;;;;;;5088543;28;19958;-82
2022/04/25 14:59:11;;;;;;;;;;;11.90;99.90;;;;;;5056310;28;19947;-81
2022/04/25 15:01:37;;;;;;;;;;;11.90;99.90;;;;;;5056742;28;19909;-83
2022/04/25 15:04:02;;;;;;;;;;;11.90;99.90;;;;;;5055974;28;19912;-81
2022/04/25 15:06:28;;;;;;;;;;;11.70;99.90;;;;;;5072808;28;20465;-81
2022/04/25 15:08:54;;;;;;;;;;;11.80;99.90;;;;;;5089690;28;19982;-82
2022/04/25 15:11:19;;;;;;;;;;;11.90;99.90;;;;;;5073085;28;19916;-82
2022/04/25 15:13:45;;;;;;;;;;;12.00;99.90;;;;;;5056042;28;19931;-82
2022/04/25 15:16:13;;;;;;;;;;;12.10;99.90;;;;;;5056078;28;19913;-82
2022/04/25 15:18:39;;;;;;;;;;;12.20;99.90;;;;;;5055907;28;19916;-82
2022/04/25 15:21:04;;;;;;;;;;;12.20;99.90;;;;;;5072954;28;19925;-83
2022/04/25 15:23:30;;;;;;;;;;;12.20;99.90;;;;;;5055268;28;19913;-83
2022/04/25 15:25:55;;;;;;;;;;;12.20;99.90;;;;;;5056119;28;19916;-82
2022/04/25 15:28:21;;;;;;;;;;;12.20;99.90;;;;;;5072260;28;19920;-84
2022/04/25 15:30:47;;;;;;;;;;;12.20;99.90;;;;;;5056084;28;19909;-82
2022/04/25 15:33:12;;;;;;;;;;;12.30;99.90;;;;;;5072740;28;19916;-82
2022/04/25 15:35:38;;;;;;;;;;;12.40;99.90;;;;;;5055347;28;19959;-82
2022/04/25 15:38:04;;;;;;;;;;;12.50;99.90;;;;;;5072403;28;19924;-83
2022/04/25 15:40:29;;;;;;;;;;;12.70;99.90;;;;;;5055817;28;19909;-83
2022/04/25 15:42:58;;;;;;;;;;;12.70;99.90;;;;;;5072393;28;19939;-83
2022/04/25 15:45:23;;;;;;;;;;;12.80;99.90;;;;;;5071999;28;20195;-83
2022/04/25 15:47:49;;;;;;;;;;;12.90;99.90;;;;;;5072198;28;19912;-83
2022/04/25 15:50:15;;;;;;;;;;;13.00;99.90;;;;;;5071950;28;20259;-81
2022/04/25 15:52:41;;;;;;;;;;;13.00;99.90;;;;;;5071200;28;19947;-83
2022/04/25 15:57:51;;;;;;;;;;;13.30;99.90;;;;;;5087184;28;19958;-82
2022/04/25 16:00:24;;;;;;;;;;;13.30;99.90;;;;;;5054975;28;19912;-83
2022/04/25 16:02:51;;;;;;;;;;;13.30;99.90;;;;;;5071373;28;19917;-82
2022/04/25 16:05:16;;;;;;;;;;;13.20;99.90;;;;;;5071432;28;20310;-82
2022/04/25 16:07:42;;;;;;;;;;;13.20;99.90;;;;;;5055466;28;19920;-82
2022/04/25 16:10:08;;;;;;;;;;;13.20;99.90;;;;;;5071479;28;19921;-83
2022/04/25 16:12:33;;;;;;;;;;;13.10;99.90;;;;;;5072326;28;19970;-85
2022/04/25 16:14:59;;;;;;;;;;;13.00;99.90;;;;;;5056224;28;19909;-84
2022/04/25 16:17:25;;;;;;;;;;;13.00;99.90;;;;;;5055174;28;19916;-85
2022/04/25 16:19:51;;;;;;;;;;;13.10;99.90;;;;;;5071272;28;20017;-82
2022/04/25 16:22:16;;;;;;;;;;;13.30;99.90;;;;;;5055082;28;19916;-82
2022/04/25 16:24:42;;;;;;;;;;;13.60;99.90;;;;;;5071783;28;19923;-83
2022/04/25 16:27:07;;;;;;;;;;;13.90;99.90;;;;;;5071737;28;19912;-83
2022/04/25 16:29:33;;;;;;;;;;;14.00;99.90;;;;;;5071251;28;19916;-82
2022/04/25 16:31:59;;;;;;;;;;;14.10;99.90;;;;;;5071626;28;19920;-83
2022/04/25 16:34:25;;;;;;;;;;;14.20;99.70;;;;;;5071599;28;20275;-83
2022/04/25 16:36:51;;;;;;;;;;;14.10;99.10;;;;;;5054598;28;19962;-82
2022/04/25 16:39:19;;;;;;;;;;;14.10;99.90;;;;;;5054067;28;20127;-82
2022/04/25 16:41:45;;;;;;;;;;;14.00;99.30;;;;;;5054281;28;19917;-82
2022/04/25 16:44:11;;;;;;;;;;;13.90;98.80;;;;;;5054555;28;19915;-83
2022/04/25 16:46:42;;;;;;;;;;;13.70;98.30;;;;;;5054494;28;20006;-82
2022/04/25 16:49:10;;;;;;;;;;;13.60;98.60;;;;;;5069731;28;20390;-82
2022/04/25 16:51:36;;;;;;;;;;;13.50;98.10;;;;;;5071025;28;20015;-83
2022/04/25 16:54:03;;;;;;;;;;;13.30;98.50;;;;;;5071188;28;19940;-82
2022/04/25 16:56:28;;;;;;;;;;;13.20;99.40;;;;;;5054363;28;19909;-82
2022/04/25 16:58:54;;;;;;;;;;;13.10;99.90;;;;;;5070448;28;20015;-81
2022/04/25 17:01:19;;;;;;;;;;;12.90;99.90;;;;;;5071156;28;20023;-82
2022/04/25 17:03:45;;;;;;;;;;;12.80;99.90;;;;;;5054303;28;20286;-85
2022/04/25 17:06:10;;;;;;;;;;;12.70;99.90;;;;;;5054025;28;19909;-82
2022/04/25 17:08:37;;;;;;;;;;;12.60;99.90;;;;;;5070180;28;19964;-81
2022/04/25 17:11:02;;;;;;;;;;;12.50;99.90;;;;;;5070546;28;19916;-80
2022/04/25 17:13:29;;;;;;;;;;;12.50;99.90;;;;;;5056596;28;20359;-82
2022/04/25 17:15:54;;;;;;;;;;;12.50;99.90;;;;;;5040571;28;19945;-83
2022/04/25 17:18:20;;;;;;;;;;;12.60;99.90;;;;;;5048710;28;20022;-82
2022/04/25 17:20:45;;;;;;;;;;;12.60;99.90;;;;;;5045026;28;19927;-83
2022/04/25 17:23:11;;;;;;;;;;;12.50;99.90;;;;;;5056837;28;19920;-82
2022/04/25 17:25:37;;;;;;;;;;;12.50;99.90;;;;;;5057037;28;19923;-82
2022/04/25 17:28:04;;;;;;;;;;;12.40;99.90;;;;;;5073679;28;20000;-82
2022/04/25 17:30:30;;;;;;;;;;;12.30;99.90;;;;;;5069035;28;19916;-83
2022/04/25 17:35:44;;;;;;;;;;;12.00;99.90;;;;;;5076478;28;19945;-82
